createdAt,value
2017-10-07T03:31:26.686Z,9.10
2017-10-07T03:33:54.273Z,9.20
2017-10-07T03:36:21.859Z,9.20
2017-10-07T03:38:49.490Z,9.10
2017-10-07T03:41:17.090Z,9.10
2017-10-07T03:43:44.670Z,9.10
2017-10-07T03:46:12.293Z,9.10
2017-10-07T03:48:39.878Z,9.10
2017-10-07T03:51:07.463Z,9.10
2017-10-07T03:53:35.074Z,9.00
2017-10-07T03:56:02.657Z,9.00
2017-10-07T03:58:30.238Z,9.00
2017-10-07T04:00:57.889Z,9.00
2017-10-07T04:03:25.465Z,9.00
2017-10-07T04:05:53.050Z,8.90
2017-10-07T04:08:20.681Z,9.00
2017-10-07T04:10:48.261Z,8.90
2017-10-07T04:13:16.614Z,8.90
2017-10-07T04:15:44.246Z,8.90
2017-10-07T04:18:11.830Z,8.90
2017-10-07T04:20:39.426Z,8.90
2017-10-07T04:23:07.055Z,8.90
2017-10-07T04:25:34.642Z,8.90
2017-10-07T04:28:02.224Z,9.00
2017-10-07T04:30:29.854Z,8.90
2017-10-07T04:32:58.214Z,8.90
2017-10-07T04:35:26.558Z,9.00
2017-10-07T04:37:54.368Z,9.00
2017-10-07T04:40:22.710Z,9.00
2017-10-07T04:42:50.286Z,9.00
2017-10-07T04:45:17.918Z,9.10
2017-10-07T04:47:45.493Z,9.00
2017-10-07T04:50:13.070Z,8.90
2017-10-07T04:52:41.453Z,8.90
2017-10-07T04:55:10.707Z,8.80
2017-10-07T04:57:38.287Z,8.80
2017-10-07T05:00:05.938Z,8.80
2017-10-07T05:02:33.514Z,8.90
2017-10-07T05:05:01.093Z,8.90
2017-10-07T05:07:29.481Z,8.90
2017-10-07T05:09:57.061Z,8.80
2017-10-07T05:12:24.650Z,8.90
2017-10-07T05:14:52.270Z,8.90
2017-10-07T05:17:19.878Z,8.80
2017-10-07T05:19:49.074Z,8.90
2017-10-07T05:22:16.715Z,8.90
2017-10-07T05:24:44.294Z,9.00
2017-10-07T05:27:11.874Z,9.00
2017-10-07T05:29:40.250Z,8.90
2017-10-07T05:32:08.589Z,9.00
2017-10-07T05:34:36.214Z,9.00
2017-10-07T05:37:03.794Z,9.00
2017-10-07T05:39:31.377Z,8.90
2017-10-07T05:41:59.022Z,8.90
2017-10-07T05:44:26.621Z,8.80
2017-10-07T05:46:54.967Z,8.90
2017-10-07T05:49:22.595Z,8.90
2017-10-07T05:51:50.169Z,8.90
2017-10-07T05:54:17.748Z,9.00
2017-10-07T05:56:45.388Z,9.10
2017-10-07T05:59:12.978Z,9.00
2017-10-07T06:01:40.567Z,9.00
2017-10-07T06:04:08.190Z,9.00
2017-10-07T06:06:35.774Z,9.00
2017-10-07T06:09:04.118Z,9.00
2017-10-07T06:11:31.801Z,9.00
2017-10-07T06:14:00.147Z,9.10
2017-10-07T06:16:27.726Z,9.10
2017-10-07T06:18:56.240Z,9.00
2017-10-07T06:21:23.877Z,9.10
2017-10-07T06:23:52.230Z,9.00
2017-10-07T06:26:19.871Z,9.00
2017-10-07T06:28:47.455Z,9.00
2017-10-07T06:31:15.047Z,9.10
2017-10-07T06:33:42.682Z,9.20
2017-10-07T06:36:10.294Z,9.20
2017-10-07T06:38:37.874Z,9.20
2017-10-07T06:41:05.506Z,9.20
2017-10-07T06:43:33.093Z,9.20
2017-10-07T06:46:00.690Z,9.10
2017-10-07T06:48:29.094Z,8.90
2017-10-07T06:50:56.700Z,8.80
2017-10-07T06:53:24.291Z,8.80
2017-10-07T06:55:52.662Z,8.90
2017-10-07T06:58:21.009Z,8.90
2017-10-07T07:00:48.624Z,8.90
2017-10-07T07:03:16.274Z,8.90
2017-10-07T07:05:43.870Z,8.90
2017-10-07T07:08:11.453Z,8.80
2017-10-07T07:10:39.059Z,8.80
2017-10-07T07:13:06.662Z,8.80
2017-10-07T07:15:34.658Z,8.90
2017-10-07T07:18:03.007Z,9.00
2017-10-07T07:20:30.587Z,9.00
2017-10-07T07:22:58.470Z,9.00
2017-10-07T07:25:26.053Z,9.10
2017-10-07T07:27:53.639Z,9.10
2017-10-07T07:30:21.994Z,9.10
2017-10-07T07:32:49.578Z,9.20
2017-10-07T07:35:17.922Z,9.30
2017-10-07T07:37:45.534Z,9.30
2017-10-07T07:40:13.121Z,9.20
2017-10-07T07:42:41.501Z,9.40
2017-10-07T07:45:09.074Z,9.40
2017-10-07T07:47:36.658Z,9.40
2017-10-07T07:50:04.262Z,9.50
2017-10-07T07:52:31.837Z,9.60
2017-10-07T07:54:59.418Z,9.80
2017-10-07T07:57:27.042Z,9.80
2017-10-07T07:59:55.402Z,9.70
2017-10-07T08:02:23.027Z,9.70
2017-10-07T08:04:50.614Z,9.70
2017-10-07T08:07:18.966Z,9.40
2017-10-07T08:09:46.610Z,9.40
2017-10-07T08:12:14.187Z,9.50
2017-10-07T08:14:41.770Z,9.50
2017-10-07T08:17:09.422Z,9.50
2017-10-07T08:19:37.018Z,9.50
2017-10-07T08:22:04.602Z,9.40
2017-10-07T08:24:32.739Z,9.40
2017-10-07T08:27:00.332Z,9.40
2017-10-07T08:29:27.917Z,9.60
2017-10-07T08:31:55.554Z,9.70
2017-10-07T08:34:23.157Z,9.80
2017-10-07T08:36:50.738Z,9.80
2017-10-07T08:39:19.159Z,10.00
2017-10-07T08:41:46.730Z,9.90
2017-10-07T08:44:14.345Z,10.10
2017-10-07T08:46:41.975Z,10.20
2017-10-07T08:49:09.566Z,10.20
2017-10-07T08:51:37.168Z,10.20
2017-10-07T08:54:04.806Z,10.50
2017-10-07T08:56:32.385Z,10.40
2017-10-07T08:58:59.969Z,10.30
2017-10-07T09:01:27.751Z,10.20
2017-10-07T09:03:55.350Z,10.30
2017-10-07T09:06:22.935Z,10.50
2017-10-07T09:08:50.537Z,10.50
2017-10-07T09:11:18.123Z,10.70
2017-10-07T09:13:45.734Z,10.60
2017-10-07T09:16:14.082Z,10.80
2017-10-07T09:18:41.675Z,10.70
2017-10-07T09:21:10.054Z,11.10
2017-10-07T09:23:38.398Z,11.10
2017-10-07T09:26:06.006Z,11.10
2017-10-07T09:28:33.665Z,10.90
2017-10-07T09:31:02.647Z,10.90
2017-10-07T09:33:30.993Z,10.70
2017-10-07T09:35:58.605Z,10.70
2017-10-07T09:38:26.189Z,10.90
2017-10-07T09:40:53.775Z,10.80
2017-10-07T09:43:22.142Z,10.30
2017-10-07T09:45:49.779Z,10.30
2017-10-07T09:48:17.366Z,10.30
2017-10-07T09:50:44.951Z,10.40
2017-10-07T09:53:13.539Z,10.20
2017-10-07T09:55:41.881Z,10.00
2017-10-07T09:58:09.465Z,10.00
2017-10-07T10:00:37.939Z,10.00
2017-10-07T10:03:05.551Z,10.00
2017-10-07T10:05:33.174Z,10.10
2017-10-07T10:08:01.523Z,10.20
2017-10-07T10:10:29.119Z,10.20
2017-10-07T10:12:57.241Z,10.30
2017-10-07T10:15:27.887Z,10.40
2017-10-07T10:17:55.503Z,10.60
2017-10-07T10:20:23.142Z,10.70
2017-10-07T10:22:50.721Z,10.80
2017-10-07T10:25:18.298Z,10.90
2017-10-07T10:27:45.910Z,11.00
2017-10-07T10:30:13.495Z,10.90
2017-10-07T10:32:41.079Z,10.80
2017-10-07T10:35:08.726Z,10.70
2017-10-07T10:37:36.314Z,10.80
2017-10-07T10:40:03.906Z,10.80
2017-10-07T10:42:31.549Z,10.80
2017-10-07T10:44:59.898Z,10.60
2017-10-07T10:47:27.502Z,10.60
2017-10-07T10:49:55.134Z,10.80
2017-10-07T10:52:23.494Z,11.00
2017-10-07T10:54:51.074Z,11.00
2017-10-07T10:57:19.478Z,11.40
2017-10-07T10:59:47.069Z,11.40
2017-10-07T11:02:14.651Z,11.50
2017-10-07T11:04:42.258Z,11.60
2017-10-07T11:07:09.859Z,11.80
2017-10-07T11:09:37.498Z,11.70
2017-10-07T11:12:05.075Z,11.60
2017-10-07T11:14:32.658Z,11.60
2017-10-07T11:17:00.335Z,11.60
2017-10-07T11:19:28.685Z,11.50
2017-10-07T11:21:56.319Z,11.50
2017-10-07T11:24:23.938Z,11.50
2017-10-07T11:26:52.286Z,11.60
2017-10-07T11:29:20.689Z,11.60
2017-10-07T11:31:49.039Z,11.40
2017-10-07T11:34:16.629Z,11.40
2017-10-07T11:36:44.237Z,11.30
2017-10-07T11:39:11.815Z,11.20
2017-10-07T11:41:39.502Z,11.10
2017-10-07T11:44:07.852Z,11.20
2017-10-07T11:46:35.543Z,11.20
2017-10-07T11:49:03.945Z,11.30
2017-10-07T11:51:31.522Z,11.20
2017-10-07T11:53:59.150Z,11.50
2017-10-07T11:56:26.765Z,11.60
2017-10-07T11:58:57.044Z,11.60
2017-10-07T12:01:24.818Z,11.40
2017-10-07T12:03:52.403Z,11.40
2017-10-07T12:06:20.046Z,11.60
2017-10-07T12:08:47.638Z,11.70
2017-10-07T12:11:15.218Z,11.90
2017-10-07T12:13:43.636Z,11.80
2017-10-07T12:16:11.230Z,11.80
2017-10-07T12:18:38.815Z,11.80
2017-10-07T12:21:07.203Z,11.70
2017-10-07T12:23:34.800Z,11.70
2017-10-07T12:26:02.391Z,11.60
2017-10-07T12:28:30.772Z,11.80
2017-10-07T12:30:58.355Z,11.80
2017-10-07T12:33:25.994Z,11.90
2017-10-07T12:35:54.346Z,11.50
2017-10-07T12:38:21.922Z,11.50
2017-10-07T12:40:49.574Z,11.50
2017-10-07T12:43:17.171Z,11.50
2017-10-07T12:45:44.755Z,11.50
2017-10-07T12:48:12.381Z,11.60
2017-10-07T12:50:40.741Z,11.80
2017-10-07T12:53:09.122Z,11.70
2017-10-07T12:55:37.513Z,11.80
2017-10-07T12:58:05.858Z,11.80
2017-10-07T13:00:33.441Z,11.80
2017-10-07T13:03:01.814Z,11.70
2017-10-07T13:05:30.160Z,11.80
2017-10-07T13:07:57.734Z,11.70
2017-10-07T13:10:25.346Z,11.80
2017-10-07T13:12:52.921Z,11.80
2017-10-07T13:15:20.509Z,11.90
2017-10-07T13:17:48.170Z,11.80
2017-10-07T13:20:15.759Z,11.90
2017-10-07T13:22:43.390Z,11.80
2017-10-07T13:25:10.977Z,11.70
2017-10-07T13:27:38.558Z,11.70
2017-10-07T13:30:06.232Z,11.70
2017-10-07T13:32:33.806Z,11.80
2017-10-07T13:35:01.389Z,11.80
2017-10-07T13:37:29.022Z,11.70
2017-10-07T13:39:56.601Z,11.70
2017-10-07T13:42:24.382Z,11.70
2017-10-07T13:44:52.849Z,11.60
2017-10-07T13:47:20.524Z,11.60
2017-10-07T13:49:48.899Z,11.50
2017-10-07T13:52:17.373Z,11.50
2017-10-07T13:54:45.716Z,11.40
2017-10-07T13:57:13.294Z,11.40
2017-10-07T13:59:40.978Z,11.50
2017-10-07T14:02:09.326Z,11.30
2017-10-07T14:04:36.918Z,11.30
2017-10-07T14:07:05.389Z,11.20
2017-10-07T14:09:33.733Z,11.20
2017-10-07T14:12:01.318Z,11.20
2017-10-07T14:14:29.742Z,11.10
2017-10-07T14:16:57.357Z,11.00
2017-10-07T14:19:25.735Z,11.10
2017-10-07T14:21:54.218Z,11.10
2017-10-07T14:24:22.566Z,11.20
2017-10-07T14:26:50.146Z,11.20
2017-10-07T14:29:18.530Z,11.20
2017-10-07T14:31:46.877Z,11.20
2017-10-07T14:34:14.506Z,11.20
2017-10-07T14:36:42.091Z,11.10
2017-10-07T14:39:09.673Z,11.00
2017-10-07T14:41:37.328Z,10.90
2017-10-07T14:44:04.901Z,10.80
2017-10-07T14:46:33.251Z,10.80
2017-10-07T14:49:01.255Z,10.80
2017-10-07T14:51:29.603Z,10.90
2017-10-07T14:53:57.187Z,10.90
2017-10-07T14:56:25.766Z,10.70
2017-10-07T14:58:54.117Z,10.70
2017-10-07T15:01:21.706Z,10.60
2017-10-07T15:03:50.073Z,10.60
2017-10-07T15:06:18.460Z,10.40
2017-10-07T15:08:46.868Z,10.40
2017-10-07T15:11:14.493Z,10.40
2017-10-07T15:13:42.830Z,10.30
2017-10-07T15:16:10.467Z,10.30
2017-10-07T15:18:38.090Z,10.30
2017-10-07T15:21:06.470Z,10.10
2017-10-07T15:23:34.933Z,10.10
2017-10-07T15:26:02.542Z,10.10
2017-10-07T15:28:30.123Z,10.00
2017-10-07T15:30:57.814Z,9.90
2017-10-07T15:33:25.390Z,10.00
2017-10-07T15:35:53.735Z,9.80
2017-10-07T15:38:21.413Z,9.80
2017-10-07T15:40:49.752Z,9.70
2017-10-07T15:43:17.353Z,9.70
2017-10-07T15:45:45.733Z,9.70
2017-10-07T15:48:14.078Z,9.60
2017-10-07T15:50:41.753Z,9.60
2017-10-07T15:53:09.332Z,9.60
2017-10-07T15:55:37.679Z,9.70
2017-10-07T15:58:05.302Z,9.60
2017-10-07T16:00:32.967Z,9.80
2017-10-07T16:03:00.545Z,9.80
2017-10-07T16:05:28.198Z,9.70
2017-10-07T16:07:55.790Z,9.70
2017-10-07T16:10:23.392Z,9.70
2017-10-07T16:12:51.042Z,9.70
2017-10-07T16:15:18.664Z,9.70
2017-10-07T16:17:46.263Z,9.70
2017-10-07T16:20:13.892Z,9.60
2017-10-07T16:22:42.256Z,9.50
2017-10-07T16:25:09.834Z,9.50
2017-10-07T16:27:38.643Z,9.60
2017-10-07T16:30:06.243Z,9.60
2017-10-07T16:32:33.840Z,9.60
2017-10-07T16:35:02.450Z,9.50
2017-10-07T16:37:30.039Z,9.50
2017-10-07T16:39:57.655Z,9.40
2017-10-07T16:42:25.305Z,9.60
2017-10-07T16:44:53.670Z,9.50
2017-10-07T16:47:22.107Z,9.50
2017-10-07T16:49:49.774Z,9.50
2017-10-07T16:52:17.358Z,9.40
2017-10-07T16:54:45.143Z,9.30
2017-10-07T16:57:13.569Z,9.30
2017-10-07T17:02:15.130Z,9.30
2017-10-07T17:04:42.804Z,9.20
2017-10-07T17:07:10.422Z,9.20
2017-10-07T17:09:38.078Z,9.20
2017-10-07T17:12:05.704Z,9.30
2017-10-07T17:14:33.285Z,9.20
2017-10-07T17:17:01.729Z,9.30
2017-10-07T17:19:29.311Z,9.20
2017-10-07T17:21:56.898Z,9.20
2017-10-07T17:24:24.552Z,9.20
2017-10-07T17:26:52.143Z,9.20
2017-10-07T17:29:19.758Z,9.20
2017-10-07T17:31:47.512Z,9.20
2017-10-07T17:34:15.894Z,9.10
2017-10-07T17:36:44.334Z,9.00
2017-10-07T17:39:12.016Z,9.00
2017-10-07T17:41:39.620Z,9.00
2017-10-07T17:44:07.227Z,9.00
2017-10-07T17:46:35.644Z,8.90
2017-10-07T17:49:03.995Z,8.90
2017-10-07T17:51:31.602Z,8.90
2017-10-07T17:53:59.215Z,9.00
2017-10-07T17:59:04.741Z,8.90
2017-10-07T18:01:32.338Z,8.90
2017-10-07T18:03:59.949Z,8.80
2017-10-07T18:06:28.480Z,8.80
2017-10-07T18:08:56.836Z,8.90
2017-10-07T18:11:24.434Z,8.80
2017-10-07T18:13:52.092Z,8.80
2017-10-07T18:16:19.690Z,8.90
2017-10-07T18:18:47.278Z,9.00
2017-10-07T18:21:14.930Z,8.90
2017-10-07T18:23:42.510Z,9.00
2017-10-07T18:26:17.198Z,8.90
2017-10-07T18:28:44.842Z,8.90
2017-10-07T18:31:12.418Z,8.90
2017-10-07T18:33:40.555Z,8.90
2017-10-07T18:36:08.182Z,8.80
2017-10-07T18:38:36.546Z,8.70
2017-10-07T18:41:04.205Z,8.70
2017-10-07T18:43:31.798Z,8.60
2017-10-07T18:46:00.174Z,8.50
2017-10-07T18:48:28.663Z,8.50
2017-10-07T18:50:56.252Z,8.50
2017-10-07T18:53:23.850Z,8.60
2017-10-07T18:55:51.498Z,8.70
2017-10-07T18:58:19.079Z,8.70
2017-10-07T19:00:47.443Z,8.70
2017-10-07T19:03:15.078Z,8.70
2017-10-07T19:05:42.662Z,8.70
2017-10-07T19:08:10.258Z,8.80
2017-10-07T19:10:37.871Z,8.90
2017-10-07T19:13:05.478Z,8.70
2017-10-07T19:15:33.388Z,8.80
2017-10-07T19:18:00.982Z,8.80
2017-10-07T19:20:28.575Z,8.80
2017-10-07T19:22:56.214Z,8.80
2017-10-07T19:25:24.962Z,8.80
2017-10-07T19:27:52.566Z,8.90
2017-10-07T19:30:20.212Z,8.90
2017-10-07T19:32:48.554Z,9.00
2017-10-07T19:35:16.176Z,9.00
2017-10-07T19:37:43.820Z,9.00
2017-10-07T19:40:11.439Z,9.00
2017-10-07T19:42:39.052Z,9.00
2017-10-07T19:45:06.798Z,9.10
2017-10-07T19:47:35.145Z,9.10
2017-10-07T19:50:02.722Z,9.10
2017-10-07T19:52:31.145Z,9.20
2017-10-07T19:54:58.759Z,9.20
2017-10-07T19:57:26.351Z,9.10
2017-10-07T19:59:54.102Z,9.00
2017-10-07T20:02:21.695Z,9.00
2017-10-07T20:04:49.294Z,9.00
2017-10-07T20:07:17.683Z,9.00
2017-10-07T20:09:45.268Z,9.00
2017-10-07T20:12:13.747Z,9.00
2017-10-07T20:14:41.338Z,9.00
2017-10-07T20:17:09.771Z,9.10
2017-10-07T20:19:38.334Z,8.90
2017-10-07T20:22:05.931Z,8.90
2017-10-07T20:24:33.525Z,8.80
2017-10-07T20:27:01.172Z,8.80
2017-10-07T20:29:28.753Z,8.70
2017-10-07T20:31:56.359Z,8.70
2017-10-07T20:34:23.986Z,8.60
2017-10-07T20:36:52.342Z,8.70
2017-10-07T20:39:19.931Z,8.60
2017-10-07T20:41:47.542Z,8.60
2017-10-07T20:44:15.141Z,8.50
2017-10-07T20:46:42.758Z,8.50
2017-10-07T20:49:10.363Z,8.60
2017-10-07T20:51:37.970Z,8.50
2017-10-07T20:54:05.627Z,8.40
2017-10-07T20:56:33.230Z,8.50
2017-10-07T20:59:00.839Z,8.40
2017-10-07T21:01:28.506Z,8.40
2017-10-07T21:03:56.111Z,8.40
2017-10-07T21:06:24.474Z,8.50
2017-10-07T21:08:52.469Z,8.40
2017-10-07T21:11:20.825Z,8.40
2017-10-07T21:13:48.411Z,8.30
2017-10-07T21:16:16.056Z,8.30
2017-10-07T21:18:44.415Z,8.40
2017-10-07T21:21:12.011Z,8.40
2017-10-07T21:23:39.883Z,8.40
2017-10-07T21:26:08.067Z,8.40
2017-10-07T21:28:35.654Z,8.50
2017-10-07T21:31:04.198Z,8.50
2017-10-07T21:33:31.799Z,8.40
2017-10-07T21:35:59.394Z,8.50
2017-10-07T21:38:27.815Z,8.50
2017-10-07T21:40:55.402Z,8.50
2017-10-07T21:43:22.998Z,8.50
2017-10-07T21:45:50.638Z,8.40
2017-10-07T21:48:18.990Z,8.40
2017-10-07T21:50:46.569Z,8.40
2017-10-07T21:53:14.204Z,8.40
2017-10-07T21:55:41.783Z,8.40
2017-10-07T21:58:09.374Z,8.40
2017-10-07T22:00:37.006Z,8.40
2017-10-07T22:03:04.594Z,8.30
2017-10-07T22:05:32.203Z,8.30
2017-10-07T22:08:00.012Z,8.30
2017-10-07T22:10:27.602Z,8.40
2017-10-07T22:12:55.179Z,8.30
2017-10-07T22:15:22.819Z,8.30
2017-10-07T22:17:50.428Z,8.20
2017-10-07T22:20:18.026Z,8.20
2017-10-07T22:22:45.636Z,8.30
2017-10-07T22:25:13.998Z,8.30
2017-10-07T22:27:41.613Z,8.30
